Time;durP1;ratioP1;P1;durP2;ratioP2;P2;SDS_P1;SDS_P2;PMS_P1;PMS_P2;Temp;Humidity;BMP_temperature;BMP_pressure;BME280_temperature;BME280_humidity;BME280_pressure;Samples;Min_cycle;Max_cycle;Signal;HPM_P1;HPM_P2
2023/06/27 00:00:18;;;;;;;10.85;3.10;;;;;;;18.16;61.38;101863.94;7387057;19;20015;-59
2023/06/27 00:02:53;;;;;;;9.20;2.40;;;;;;;18.18;61.54;101862.84;7390955;19;20026;-59
2023/06/27 00:05:20;;;;;;;12.02;2.60;;;;;;;18.11;61.60;101858.16;7397166;19;20014;-59
2023/06/27 00:07:48;;;;;;;11.75;2.97;;;;;;;18.18;61.68;101864.69;7394895;19;20018;-58
2023/06/27 00:10:15;;;;;;;10.65;2.42;;;;;;;18.21;61.09;101865.25;7395089;19;20026;-58
2023/06/27 00:12:44;;;;;;;11.13;2.75;;;;;;;18.03;61.87;101864.19;7396329;19;20029;-58
2023/06/27 00:15:11;;;;;;;11.05;2.60;;;;;;;18.08;61.68;101863.78;7396488;19;20342;-59
2023/06/27 00:17:40;;;;;;;12.45;2.55;;;;;;;18.07;61.57;101865.59;7397043;19;20019;-58
2023/06/27 00:20:11;;;;;;;12.40;3.05;;;;;;;18.05;61.67;101872.97;7396051;19;20052;-58
2023/06/27 00:22:39;;;;;;;8.05;2.25;;;;;;;18.00;62.32;101869.81;7394784;19;20048;-56
2023/06/27 00:25:09;;;;;;;11.25;2.65;;;;;;;17.92;62.47;101869.63;7396255;19;20015;-57
2023/06/27 00:27:37;;;;;;;12.73;2.70;;;;;;;18.03;61.87;101874.91;7396348;19;20018;-54
2023/06/27 00:30:05;;;;;;;10.18;2.80;;;;;;;18.05;61.86;101874.75;7394729;19;20019;-57
2023/06/27 00:32:33;;;;;;;9.60;2.53;;;;;;;18.08;61.99;101879.88;7396162;19;20018;-57
2023/06/27 00:35:00;;;;;;;9.52;3.00;;;;;;;17.96;62.28;101871.91;7395784;19;20022;-57
2023/06/27 00:37:28;;;;;;;7.85;2.63;;;;;;;17.97;62.14;101872.75;7396252;19;20849;-57
2023/06/27 00:39:55;;;;;;;9.93;2.72;;;;;;;17.93;62.11;101868.66;7395125;19;20022;-57
2023/06/27 00:42:22;;;;;;;10.35;2.80;;;;;;;17.93;62.24;101874.88;7395498;19;20018;-57
2023/06/27 00:44:49;;;;;;;8.35;2.40;;;;;;;17.79;62.59;101880.56;7391065;19;20036;-57
2023/06/27 00:47:17;;;;;;;9.27;2.40;;;;;;;17.72;62.97;101872.19;7393941;19;20014;-56
2023/06/27 00:49:45;;;;;;;7.43;2.20;;;;;;;17.76;62.63;101881.69;7394336;19;20014;-57
2023/06/27 00:52:12;;;;;;;9.27;2.22;;;;;;;17.81;62.43;101878.59;7395117;19;20024;-57
2023/06/27 00:54:40;;;;;;;8.90;2.47;;;;;;;17.72;62.42;101874.00;7393112;19;20085;-57
2023/06/27 00:57:07;;;;;;;12.18;2.35;;;;;;;17.61;63.14;101868.72;7395271;19;20022;-58
2023/06/27 00:59:36;;;;;;;11.50;2.80;;;;;;;17.60;63.11;101872.38;7393701;19;20018;-61
2023/06/27 01:02:04;;;;;;;10.80;2.30;;;;;;;17.65;63.12;101867.47;7393948;19;20022;-62
2023/06/27 01:04:31;;;;;;;9.85;2.47;;;;;;;17.70;62.96;101871.44;7393466;19;20022;-61
2023/06/27 01:07:25;;;;;;;10.77;2.38;;;;;;;17.76;62.93;101862.94;7393912;19;20129;-61
2023/06/27 01:09:55;;;;;;;;;;;;;;;17.69;63.10;101868.91;7394444;19;20024;-61
2023/06/27 01:12:39;;;;;;;11.18;2.33;;;;;;;17.61;63.24;101872.25;7395791;19;19964;-58
2023/06/27 01:15:07;;;;;;;9.95;2.28;;;;;;;17.55;63.07;101875.44;7391169;19;20116;-58
2023/06/27 01:17:36;;;;;;;9.05;2.50;;;;;;;17.52;63.01;101862.34;7392856;19;20089;-59
2023/06/27 01:20:05;;;;;;;11.80;2.38;;;;;;;17.50;63.11;101869.63;7394241;19;20019;-58
2023/06/27 01:22:37;;;;;;;9.48;2.22;;;;;;;17.57;62.82;101870.81;7392933;19;20007;-59
2023/06/27 01:25:07;;;;;;;9.20;2.53;;;;;;;17.64;62.58;101861.28;7393993;19;20079;-57
2023/06/27 01:27:35;;;;;;;11.05;2.67;;;;;;;17.61;62.52;101864.22;7392585;19;20086;-58
2023/06/27 01:30:03;;;;;;;9.98;2.60;;;;;;;17.56;62.30;101855.72;7392684;19;20022;-58
2023/06/27 01:32:40;;;;;;;8.90;2.20;;;;;;;17.62;62.37;101851.66;7394464;19;20018;-58
2023/06/27 01:35:25;;;;;;;10.85;2.42;;;;;;;17.54;62.70;101861.19;7392703;19;20019;-57
2023/06/27 01:38:02;;;;;;;8.82;3.10;;;;;;;17.50;62.86;101864.28;7391852;19;20229;-59
2023/06/27 01:40:36;;;;;;;13.30;2.70;;;;;;;17.47;62.62;101857.34;7392860;19;20209;-59
2023/06/27 01:43:09;;;;;;;12.07;2.10;;;;;;;17.51;62.71;101856.13;7394163;19;20033;-59
2023/06/27 01:45:38;;;;;;;10.15;2.50;;;;;;;17.45;62.75;101850.44;7393984;19;20010;-61
2023/06/27 01:48:07;;;;;;;7.78;2.28;;;;;;;17.54;62.25;101858.53;7391248;19;20043;-60
2023/06/27 01:50:35;;;;;;;10.90;2.22;;;;;;;17.52;62.45;101863.19;7391305;19;20056;-60
2023/06/27 01:53:02;;;;;;;7.82;2.40;;;;;;;17.51;62.28;101857.94;7394069;19;20014;-60
2023/06/27 01:55:30;;;;;;;9.23;2.65;;;;;;;17.53;61.85;101854.16;7393096;19;20042;-60
2023/06/27 01:57:57;;;;;;;6.78;2.25;;;;;;;17.58;62.04;101850.22;7389876;19;20053;-61
2023/06/27 02:00:24;;;;;;;10.57;2.80;;;;;;;17.44;62.02;101848.75;7393039;19;20032;-62
2023/06/27 02:02:52;;;;;;;9.90;2.55;;;;;;;17.49;61.99;101852.72;7393191;19;20664;-62
2023/06/27 02:05:19;;;;;;;9.27;2.30;;;;;;;17.52;62.23;101848.94;7393297;19;20518;-58
2023/06/27 02:07:47;;;;;;;10.20;2.30;;;;;;;17.45;62.27;101853.13;7390190;19;20025;-58
2023/06/27 02:10:14;;;;;;;7.25;2.00;;;;;;;17.42;62.25;101848.88;7392341;19;20022;-58
2023/06/27 02:12:41;;;;;;;6.75;2.47;;;;;;;17.41;62.00;101854.38;7393279;19;20021;-59
2023/06/27 02:15:09;;;;;;;8.27;2.33;;;;;;;17.44;61.98;101844.25;7392436;19;20029;-58
2023/06/27 02:17:36;;;;;;;7.53;2.35;;;;;;;17.41;61.98;101844.50;7391648;19;20022;-59
2023/06/27 02:20:04;;;;;;;12.50;2.28;;;;;;;17.49;61.68;101844.69;7391962;19;20030;-60
2023/06/27 02:22:32;;;;;;;7.75;2.05;;;;;;;17.44;61.90;101843.41;7393270;19;20055;-60
2023/06/27 02:24:59;;;;;;;11.90;2.38;;;;;;;17.40;62.12;101839.25;7392150;19;20015;-60
2023/06/27 02:27:26;;;;;;;8.55;2.50;;;;;;;17.32;62.15;101842.59;7390559;19;20015;-60
2023/06/27 02:29:53;;;;;;;5.18;2.20;;;;;;;17.25;62.41;101841.44;7391561;19;20018;-60
2023/06/27 02:32:21;;;;;;;8.05;2.42;;;;;;;17.16;62.51;101840.34;7392907;19;20018;-64
2023/06/27 02:34:48;;;;;;;8.27;2.13;;;;;;;17.24;61.98;101837.88;7392561;19;20527;-64
2023/06/27 02:37:15;;;;;;;7.55;1.92;;;;;;;17.15;61.88;101836.00;7391070;19;20506;-65
2023/06/27 02:39:43;;;;;;;8.15;2.40;;;;;;;17.14;61.84;101831.63;7391336;19;20503;-65
2023/06/27 02:42:10;;;;;;;5.80;2.42;;;;;;;17.09;61.83;101841.00;7391397;19;20495;-64
2023/06/27 02:44:37;;;;;;;9.02;2.28;;;;;;;17.14;61.57;101833.47;7390126;19;20151;-65
2023/06/27 02:47:05;;;;;;;6.95;2.10;;;;;;;17.24;61.55;101842.38;7388955;19;20015;-64
2023/06/27 02:49:32;;;;;;;8.70;2.00;;;;;;;17.19;61.45;101840.09;7390846;19;20019;-63
2023/06/27 02:51:59;;;;;;;7.72;2.15;;;;;;;17.15;61.52;101844.03;7390267;19;20055;-65
2023/06/27 02:54:27;;;;;;;8.77;2.10;;;;;;;17.11;61.78;101833.72;7390089;19;20031;-64
2023/06/27 02:56:54;;;;;;;6.22;1.90;;;;;;;17.22;61.76;101839.84;7389983;19;20473;-64
2023/06/27 02:59:21;;;;;;;6.97;1.95;;;;;;;17.29;61.22;101843.72;7391111;19;20043;-64
2023/06/27 03:01:49;;;;;;;9.80;2.20;;;;;;;17.16;61.41;101842.19;7391011;19;20034;-64
2023/06/27 03:04:25;;;;;;;5.97;2.17;;;;;;;17.12;61.74;101838.91;7389956;19;20077;-64
2023/06/27 03:06:53;;;;;;;8.60;2.17;;;;;;;17.14;61.49;101847.69;7388623;19;20025;-64
2023/06/27 03:09:20;;;;;;;7.78;2.40;;;;;;;17.11;61.89;101841.75;7390266;19;20030;-65
2023/06/27 03:11:48;;;;;;;8.00;2.33;;;;;;;17.17;61.81;101844.75;7389757;19;20033;-64
2023/06/27 03:14:17;;;;;;;6.00;1.98;;;;;;;17.23;61.76;101833.50;7391528;19;20146;-64
2023/06/27 03:16:44;;;;;;;6.07;2.35;;;;;;;17.18;61.95;101837.56;7389865;19;20014;-63
2023/06/27 03:19:12;;;;;;;6.30;1.90;;;;;;;17.19;61.90;101833.91;7389740;19;20026;-63
2023/06/27 03:21:39;;;;;;;9.70;2.65;;;;;;;17.06;62.25;101836.78;7388743;19;20029;-63
2023/06/27 03:24:07;;;;;;;5.45;2.00;;;;;;;17.10;61.93;101832.88;7391338;19;20019;-63
2023/06/27 03:26:34;;;;;;;9.15;2.20;;;;;;;17.19;61.80;101837.44;7389638;19;20015;-64
2023/06/27 03:29:01;;;;;;;8.00;2.45;;;;;;;17.26;61.10;101843.13;7390159;19;20018;-64
2023/06/27 03:31:28;;;;;;;8.00;2.55;;;;;;;17.10;61.68;101835.53;7387421;19;20514;-64
2023/06/27 03:33:57;;;;;;;6.97;2.42;;;;;;;17.05;61.90;101837.72;7388789;19;20025;-64
2023/06/27 03:36:24;;;;;;;5.55;2.00;;;;;;;17.03;62.00;101832.53;7388284;19;20043;-62
2023/06/27 03:38:52;;;;;;;6.28;2.22;;;;;;;17.07;61.82;101838.47;7388822;19;20022;-64
2023/06/27 03:41:19;;;;;;;10.32;2.60;;;;;;;17.10;62.02;101838.22;7390303;19;20010;-64
2023/06/27 03:43:46;;;;;;;7.30;2.20;;;;;;;17.05;61.74;101837.72;7388690;19;20022;-64
2023/06/27 03:46:14;;;;;;;7.78;2.42;;;;;;;16.94;61.86;101838.66;7389524;19;20479;-64
2023/06/27 03:48:42;;;;;;;10.45;2.78;;;;;;;16.96;62.11;101839.34;7389281;19;20038;-64
2023/06/27 03:51:09;;;;;;;6.95;2.00;;;;;;;17.19;61.64;101852.66;7389469;19;20094;-62
2023/06/27 03:53:36;;;;;;;9.20;2.40;;;;;;;17.14;61.46;101845.00;7389786;19;20022;-59
2023/06/27 03:56:04;;;;;;;8.88;2.80;;;;;;;17.11;61.35;101847.09;7389482;19;20014;-60
2023/06/27 03:58:32;;;;;;;9.10;2.22;;;;;;;17.06;61.53;101842.13;7389235;19;20014;-60
2023/06/27 04:00:59;;;;;;;6.85;2.30;;;;;;;17.01;61.74;101847.00;7389727;19;20549;-59
2023/06/27 04:03:27;;;;;;;7.50;2.20;;;;;;;17.00;61.75;101843.47;7389153;19;20019;-58
2023/06/27 04:05:54;;;;;;;7.40;2.17;;;;;;;17.01;61.78;101847.00;7389370;19;20022;-58
2023/06/27 04:08:22;;;;;;;8.07;2.28;;;;;;;16.97;61.90;101851.75;7386798;19;20015;-59
2023/06/27 04:10:49;;;;;;;7.20;2.38;;;;;;;16.95;62.01;101850.19;7387104;19;20015;-60
2023/06/27 04:13:16;;;;;;;7.13;2.50;;;;;;;17.02;61.87;101848.72;7388946;19;20554;-61
2023/06/27 04:15:44;;;;;;;7.10;2.28;;;;;;;16.93;62.35;101838.75;7389532;19;20010;-59
2023/06/27 04:18:11;;;;;;;6.82;2.03;;;;;;;16.93;62.05;101838.75;7386439;19;20047;-59
2023/06/27 04:20:38;;;;;;;6.47;2.10;;;;;;;16.89;62.27;101842.66;7389173;19;20011;-59
2023/06/27 04:23:06;;;;;;;8.32;2.58;;;;;;;16.98;61.73;101837.41;7388904;19;20393;-62
2023/06/27 04:25:33;;;;;;;7.93;2.25;;;;;;;16.91;62.34;101840.72;7388917;19;20360;-63
2023/06/27 04:28:00;;;;;;;10.30;2.60;;;;;;;16.93;62.24;101836.94;7386845;19;20037;-61
2023/06/27 04:30:29;;;;;;;6.38;2.45;;;;;;;17.04;61.95;101838.72;7386574;19;20010;-61
2023/06/27 04:32:56;;;;;;;9.48;2.58;;;;;;;17.02;62.21;101830.84;7388479;19;20015;-61
2023/06/27 04:35:23;;;;;;;7.25;2.83;;;;;;;17.05;62.35;101838.56;7388902;19;20019;-59
2023/06/27 04:37:51;;;;;;;6.53;1.95;;;;;;;17.06;61.90;101828.75;7387472;19;20101;-63
2023/06/27 04:40:19;;;;;;;6.82;2.38;;;;;;;17.12;61.90;101832.72;7387830;19;20022;-63
2023/06/27 04:42:47;;;;;;;5.72;2.30;;;;;;;17.09;61.99;101823.09;7388736;19;20025;-63
2023/06/27 04:45:14;;;;;;;6.30;2.50;;;;;;;17.04;62.16;101825.34;7388624;19;20104;-62
2023/06/27 04:47:42;;;;;;;11.13;2.38;;;;;;;17.07;62.35;101827.75;7386458;19;20078;-62
2023/06/27 04:50:14;;;;;;;18.50;2.90;;;;;;;17.22;61.61;101833.66;7391395;19;20014;-61
2023/06/27 04:52:43;;;;;;;10.27;2.53;;;;;;;17.14;61.99;101830.78;7391689;19;20042;-61
2023/06/27 04:55:12;;;;;;;8.25;2.63;;;;;;;17.09;62.38;101831.13;7394115;19;20026;-62
2023/06/27 04:57:40;;;;;;;8.57;2.58;;;;;;;17.19;62.10;101834.75;7391755;19;20031;-61
2023/06/27 05:00:10;;;;;;;6.57;1.80;;;;;;;17.27;61.69;101842.13;7393077;19;20023;-61
2023/06/27 05:02:37;;;;;;;12.82;2.33;;;;;;;17.32;61.87;101839.06;7395339;19;20015;-61
2023/06/27 05:05:15;;;;;;;7.55;2.53;;;;;;;17.32;61.96;101844.41;7395052;19;20015;-62
2023/06/27 05:07:42;;;;;;;7.22;2.30;;;;;;;17.28;61.89;101841.16;7393057;19;20047;-62
2023/06/27 05:10:10;;;;;;;7.85;2.40;;;;;;;17.44;61.37;101830.00;7394900;19;20125;-62
2023/06/27 05:12:37;;;;;;;5.90;2.13;;;;;;;17.53;61.28;101827.38;7393079;19;20022;-62
2023/06/27 05:15:05;;;;;;;8.25;2.15;;;;;;;17.56;61.41;101831.63;7395146;19;20015;-62
2023/06/27 05:17:32;;;;;;;6.72;2.58;;;;;;;17.54;61.51;101837.09;7393361;19;20014;-62
2023/06/27 05:19:59;;;;;;;7.57;2.40;;;;;;;17.61;61.11;101837.41;7394729;19;20014;-63
2023/06/27 05:22:27;;;;;;;8.48;2.28;;;;;;;17.67;61.02;101831.56;7394200;19;20057;-61
2023/06/27 05:24:54;;;;;;;6.45;2.38;;;;;;;17.74;60.74;101839.88;7394188;19;20029;-61
2023/06/27 05:27:21;;;;;;;6.93;2.38;;;;;;;17.73;60.92;101833.69;7392747;19;20499;-61
2023/06/27 05:29:48;;;;;;;6.65;2.30;;;;;;;17.73;60.75;101830.16;7392318;19;20482;-61
2023/06/27 05:32:16;;;;;;;8.57;2.60;;;;;;;17.68;61.34;101838.59;7392960;19;20078;-60
2023/06/27 05:34:43;;;;;;;16.27;3.30;;;;;;;17.80;61.12;101844.75;7394650;19;20029;-58
2023/06/27 05:37:12;;;;;;;9.98;2.50;;;;;;;17.89;60.82;101833.22;7392625;19;20032;-58
2023/06/27 05:39:39;;;;;;;6.95;2.95;;;;;;;17.84;60.93;101842.66;7393350;19;20110;-59
2023/06/27 05:42:07;;;;;;;7.90;2.47;;;;;;;17.89;60.86;101843.94;7393853;19;20018;-59
2023/06/27 05:44:34;;;;;;;9.93;2.92;;;;;;;17.98;60.70;101836.94;7394384;19;20025;-58
2023/06/27 05:47:02;;;;;;;8.93;2.47;;;;;;;17.99;60.72;101835.97;7393358;19;20511;-58
2023/06/27 05:49:29;;;;;;;12.85;3.15;;;;;;;17.99;60.86;101839.47;7393059;19;20463;-59
2023/06/27 05:51:57;;;;;;;5.50;2.42;;;;;;;18.05;60.82;101838.09;7390971;19;20383;-58
2023/06/27 05:54:24;;;;;;;10.38;2.97;;;;;;;17.88;60.96;101842.25;7392381;19;20018;-58
2023/06/27 05:56:52;;;;;;;12.27;3.03;;;;;;;17.92;60.75;101843.69;7392554;19;20025;-61
2023/06/27 05:59:19;;;;;;;12.32;3.10;;;;;;;17.89;61.14;101840.41;7391687;19;20487;-60
2023/06/27 06:01:47;;;;;;;8.65;2.70;;;;;;;17.97;60.96;101841.47;7391956;19;20022;-60
2023/06/27 06:04:14;;;;;;;7.78;3.08;;;;;;;18.02;60.64;101838.38;7391925;19;20086;-60
2023/06/27 06:06:41;;;;;;;12.35;2.90;;;;;;;18.10;60.61;101843.06;7390706;19;20511;-60
2023/06/27 06:09:09;;;;;;;8.48;2.63;;;;;;;18.08;61.03;101842.31;7392290;19;20019;-60
2023/06/27 06:11:36;;;;;;;10.68;2.85;;;;;;;18.11;61.22;101834.88;7392672;19;20025;-59
2023/06/27 06:14:04;;;;;;;8.90;2.90;;;;;;;18.19;60.95;101832.34;7392794;19;20022;-59
2023/06/27 06:16:34;;;;;;;9.30;2.80;;;;;;;18.23;61.11;101835.59;7392174;19;20248;-63
2023/06/27 06:19:03;;;;;;;8.23;2.58;;;;;;;18.22;61.16;101825.88;7389808;19;20019;-63
2023/06/27 06:21:30;;;;;;;10.35;3.15;;;;;;;18.29;60.99;101828.88;7393305;19;20026;-61
2023/06/27 06:23:58;;;;;;;11.07;3.05;;;;;;;18.32;61.27;101831.28;7390737;19;20025;-61
2023/06/27 06:26:25;;;;;;;10.70;3.33;;;;;;;18.34;60.81;101827.47;7391748;19;20054;-59
2023/06/27 06:28:53;;;;;;;12.40;3.67;;;;;;;18.39;60.80;101829.72;7392362;19;20018;-62
2023/06/27 06:31:21;;;;;;;9.40;2.60;;;;;;;18.35;60.81;101828.31;7391767;19;20022;-60
2023/06/27 06:33:48;;;;;;;9.68;3.35;;;;;;;18.40;60.43;101821.56;7392336;19;20022;-62
2023/06/27 06:36:16;;;;;;;8.23;2.72;;;;;;;18.46;60.69;101830.88;7391499;19;20026;-63
2023/06/27 06:38:43;;;;;;;8.63;2.70;;;;;;;18.51;60.82;101834.00;7391548;19;20018;-63
2023/06/27 06:41:10;;;;;;;11.52;3.30;;;;;;;18.55;60.59;101827.38;7392783;19;20064;-62
2023/06/27 06:43:37;;;;;;;9.10;3.00;;;;;;;18.61;60.45;101826.81;7391899;19;20519;-63
2023/06/27 06:46:05;;;;;;;9.65;3.88;;;;;;;18.58;60.51;101827.06;7389721;19;20014;-61
2023/06/27 06:48:32;;;;;;;7.05;2.50;;;;;;;18.64;60.54;101837.25;7390264;19;20018;-61
2023/06/27 06:50:59;;;;;;;9.93;2.58;;;;;;;18.75;60.20;101829.13;7391284;19;20091;-61
2023/06/27 06:53:27;;;;;;;7.20;2.83;;;;;;;18.74;60.26;101830.13;7390061;19;20024;-62
2023/06/27 06:55:54;;;;;;;10.20;3.17;;;;;;;18.73;60.60;101844.53;7388943;19;20012;-61
2023/06/27 06:58:22;;;;;;;10.55;2.97;;;;;;;18.77;60.43;101841.53;7390077;19;20162;-63
2023/06/27 07:00:49;;;;;;;12.20;2.92;;;;;;;18.83;60.40;101838.31;7391592;19;20056;-63
2023/06/27 07:03:16;;;;;;;9.35;3.28;;;;;;;18.88;60.20;101831.50;7391340;19;20017;-63
2023/06/27 07:05:43;;;;;;;9.57;2.92;;;;;;;18.93;60.30;101836.50;7390559;19;20029;-62
2023/06/27 07:08:11;;;;;;;10.02;2.72;;;;;;;18.93;60.08;101831.13;7388639;19;20035;-63
2023/06/27 07:10:39;;;;;;;10.68;3.33;;;;;;;19.01;59.98;101825.88;7390261;19;20018;-63
2023/06/27 07:13:06;;;;;;;11.18;3.03;;;;;;;19.03;59.94;101823.88;7386776;19;20130;-61
2023/06/27 07:15:33;;;;;;;11.07;3.70;;;;;;;19.06;59.83;101812.03;7390460;19;20030;-62
2023/06/27 07:18:00;;;;;;;8.82;2.65;;;;;;;19.19;59.65;101816.13;7386947;19;20014;-61
2023/06/27 07:20:28;;;;;;;11.65;2.70;;;;;;;19.13;59.71;101818.53;7389080;19;20018;-61
2023/06/27 07:22:55;;;;;;;7.95;2.10;;;;;;;19.14;59.74;101823.75;7390542;19;20280;-62
2023/06/27 07:25:24;;;;;;;9.32;3.00;;;;;;;19.22;59.24;101815.81;7389195;19;20049;-61
2023/06/27 07:27:51;;;;;;;6.68;2.38;;;;;;;19.35;59.26;101804.78;7388477;19;20035;-61
2023/06/27 07:30:18;;;;;;;9.57;3.03;;;;;;;19.36;58.89;101803.78;7389639;19;20019;-62
2023/06/27 07:32:46;;;;;;;18.10;4.20;;;;;;;19.35;58.55;101807.47;7388843;19;20015;-62
2023/06/27 07:35:14;;;;;;;9.93;2.92;;;;;;;19.41;57.68;101806.88;7390409;19;20086;-63
2023/06/27 07:37:41;;;;;;;13.02;2.88;;;;;;;19.44;57.11;101809.28;7388456;19;20393;-62
2023/06/27 07:40:08;;;;;;;9.20;2.15;;;;;;;19.46;56.79;101811.84;7389397;19;20027;-63
2023/06/27 07:42:35;;;;;;;5.93;1.65;;;;;;;19.55;55.60;101827.06;7389764;19;20025;-62
2023/06/27 07:45:03;;;;;;;6.72;1.90;;;;;;;19.67;54.88;101808.97;7389569;19;20026;-63
2023/06/27 07:47:30;;;;;;;8.35;1.95;;;;;;;19.70;55.14;101808.69;7388697;19;20384;-63
2023/06/27 07:49:58;;;;;;;11.15;2.35;;;;;;;19.67;55.10;101815.19;7389500;19;20039;-61
2023/06/27 07:52:25;;;;;;;6.35;2.10;;;;;;;19.79;55.20;101812.31;7388224;19;20014;-63
2023/06/27 07:54:52;;;;;;;8.52;2.33;;;;;;;19.83;55.30;101809.19;7389213;19;20011;-63
2023/06/27 07:57:21;;;;;;;11.05;2.40;;;;;;;19.70;55.01;101812.22;7388667;19;20015;-62
2023/06/27 07:59:48;;;;;;;22.55;4.05;;;;;;;19.67;54.85;101817.03;7388312;19;20017;-62
2023/06/27 08:02:15;;;;;;;28.85;4.63;;;;;;;19.73;54.39;101819.16;7389720;19;20011;-61
2023/06/27 08:04:43;;;;;;;21.30;4.05;;;;;;;19.90;54.05;101810.28;7388991;19;20025;-62
2023/06/27 08:07:10;;;;;;;18.60;3.83;;;;;;;19.97;53.74;101818.63;7388178;19;20011;-63
2023/06/27 08:09:38;;;;;;;8.60;2.08;;;;;;;20.12;52.31;101817.13;7387701;19;20039;-62
2023/06/27 08:12:06;;;;;;;8.25;1.70;;;;;;;20.23;51.81;101815.25;7388869;19;20031;-62
2023/06/27 08:14:33;;;;;;;10.05;1.70;;;;;;;20.33;51.61;101807.94;7387691;19;20022;-63
2023/06/27 08:17:00;;;;;;;8.93;2.03;;;;;;;20.38;51.55;101806.50;7388649;19;20082;-62
2023/06/27 08:19:28;;;;;;;10.02;1.90;;;;;;;20.34;51.42;101812.34;7388108;19;20552;-62
2023/06/27 08:21:55;;;;;;;7.07;1.27;;;;;;;20.18;51.30;101786.09;7387637;19;20042;-59
2023/06/27 08:24:22;;;;;;;7.93;1.40;;;;;;;20.30;50.49;101806.41;7393284;19;20010;-59
2023/06/27 08:26:50;;;;;;;6.18;1.27;;;;;;;20.39;50.65;101799.28;7397362;19;20022;-59
2023/06/27 08:29:17;;;;;;;8.77;1.55;;;;;;;20.44;49.90;101797.81;7395709;19;20018;-59
2023/06/27 08:31:46;;;;;;;7.15;1.40;;;;;;;20.55;49.92;101791.41;7395553;19;20050;-59
2023/06/27 08:34:13;;;;;;;8.75;1.55;;;;;;;20.56;48.94;101793.09;7394626;19;20488;-59
2023/06/27 08:36:41;;;;;;;4.78;1.42;;;;;;;20.72;48.59;101795.13;7396266;19;20386;-59
2023/06/27 08:39:10;;;;;;;9.65;1.50;;;;;;;20.81;47.94;101791.47;7395630;19;20503;-59
2023/06/27 08:41:37;;;;;;;4.70;1.40;;;;;;;20.88;47.26;101775.56;7395835;19;20053;-59
2023/06/27 08:44:04;;;;;;;7.75;1.42;;;;;;;21.01;47.58;101769.75;7396702;19;20039;-60
2023/06/27 08:46:34;;;;;;;8.07;1.52;;;;;;;21.03;47.78;101782.09;7394823;19;20014;-59
2023/06/27 08:49:03;;;;;;;8.38;1.40;;;;;;;20.84;47.70;101793.03;7394030;19;20018;-59
2023/06/27 08:51:31;;;;;;;5.90;1.23;;;;;;;20.64;48.06;101771.66;7395326;19;20096;-59
2023/06/27 08:54:12;;;;;;;9.63;1.67;;;;;;;20.83;47.92;101772.47;7394220;19;20026;-59
2023/06/27 08:56:40;;;;;;;8.25;1.60;;;;;;;20.79;47.98;101779.16;7395972;19;20019;-59
2023/06/27 08:59:12;;;;;;;6.68;1.55;;;;;;;20.93;47.92;101784.00;7394304;19;20018;-61
2023/06/27 09:01:40;;;;;;;12.18;2.65;;;;;;;20.97;48.18;101800.72;7395041;19;20042;-59
2023/06/27 09:04:09;;;;;;;14.27;2.33;;;;;;;20.83;49.20;101792.16;7395968;19;20038;-59
2023/06/27 09:06:39;;;;;;;12.35;1.90;;;;;;;20.67;49.86;101787.47;7394946;19;20475;-59
2023/06/27 09:09:06;;;;;;;5.40;1.30;;;;;;;20.54;49.36;101788.88;7393767;19;20506;-59
2023/06/27 09:11:34;;;;;;;6.45;1.30;;;;;;;20.37;49.23;101793.19;7394727;19;20019;-58
2023/06/27 09:14:02;;;;;;;4.05;1.00;;;;;;;20.37;48.81;101795.88;7393558;19;20047;-58
2023/06/27 09:16:29;;;;;;;5.47;1.17;;;;;;;20.36;49.02;101795.03;7395099;19;20018;-59
2023/06/27 09:18:57;;;;;;;4.35;1.17;;;;;;;20.31;49.81;101788.44;7393483;19;20039;-59
2023/06/27 09:21:26;;;;;;;7.55;1.90;;;;;;;20.26;51.29;101791.59;7394086;19;20029;-58
2023/06/27 09:23:53;;;;;;;9.38;2.10;;;;;;;20.12;52.59;101790.22;7395165;19;20018;-59
2023/06/27 09:26:20;;;;;;;8.45;2.08;;;;;;;20.22;53.28;101792.84;7394520;19;20056;-58
2023/06/27 09:28:49;;;;;;;8.23;2.30;;;;;;;20.38;52.58;101789.53;7394474;19;20023;-59
2023/06/27 09:31:19;;;;;;;8.95;1.70;;;;;;;20.46;51.97;101792.28;7394575;19;20029;-59
2023/06/27 09:33:48;;;;;;;5.72;1.50;;;;;;;20.54;51.54;101770.03;7392948;19;20082;-59
2023/06/27 09:36:33;;;;;;;9.98;2.20;;;;;;;20.73;50.83;101786.03;7393516;19;20035;-59
2023/06/27 09:39:13;;;;;;;9.73;3.10;;;;;;;20.91;50.61;101786.03;7393105;19;20019;-59
2023/06/27 09:41:47;;;;;;;7.47;2.58;;;;;;;21.21;49.72;101789.28;7392353;19;20450;-60
2023/06/27 09:44:16;;;;;;;11.25;2.40;;;;;;;21.10;50.40;101817.31;7394010;19;20066;-59
2023/06/27 09:46:44;;;;;;;12.50;2.35;;;;;;;20.79;54.19;101803.41;7394060;19;20026;-60
2023/06/27 09:49:12;;;;;;;9.07;1.95;;;;;;;20.33;57.49;101798.03;7393520;19;20026;-60
2023/06/27 09:51:43;;;;;;;11.15;2.67;;;;;;;20.16;58.99;101788.94;7393143;19;20019;-60
2023/06/27 09:54:12;;;;;;;12.55;2.50;;;;;;;19.67;60.40;101799.06;7391754;19;20492;-60
2023/06/27 09:56:42;;;;;;;8.35;2.58;;;;;;;19.35;60.07;101798.56;7392842;19;20035;-61
2023/06/27 09:59:11;;;;;;;6.35;1.50;;;;;;;19.23;59.89;101798.72;7391342;19;20018;-60
2023/06/27 10:01:41;;;;;;;6.25;1.60;;;;;;;19.24;59.51;101795.03;7392954;19;20026;-61
2023/06/27 10:04:09;;;;;;;6.07;1.83;;;;;;;19.45;60.17;101800.22;7391958;19;20019;-60
2023/06/27 10:06:41;;;;;;;10.37;2.83;;;;;;;19.70;60.31;101790.72;7393926;19;20018;-59
2023/06/27 10:09:08;;;;;;;8.48;2.83;;;;;;;20.03;59.82;101790.28;7390758;19;20375;-60
2023/06/27 10:11:37;;;;;;;9.32;2.42;;;;;;;20.35;57.54;101785.28;7391392;19;20029;-60
2023/06/27 10:14:04;;;;;;;7.80;2.30;;;;;;;20.64;56.38;101778.84;7392402;19;20050;-60
2023/06/27 10:16:32;;;;;;;10.93;2.05;;;;;;;20.83;57.45;101788.63;7393412;19;20015;-60
2023/06/27 10:19:01;;;;;;;8.90;2.05;;;;;;;20.81;56.22;101786.09;7390697;19;20025;-60
2023/06/27 10:21:29;;;;;;;7.72;1.60;;;;;;;20.77;56.21;101778.50;7392318;19;20018;-60
2023/06/27 10:23:59;;;;;;;8.48;2.13;;;;;;;20.89;56.85;101778.09;7392736;19;20018;-57
2023/06/27 10:26:28;;;;;;;6.00;1.80;;;;;;;20.80;55.96;101770.13;7392748;19;20025;-58
2023/06/27 10:28:56;;;;;;;7.13;1.90;;;;;;;20.72;55.28;101770.88;7393112;19;20022;-58
2023/06/27 10:31:45;;;;;;;11.40;2.53;;;;;;;20.79;53.40;101768.41;7391774;19;20026;-58
2023/06/27 10:34:22;;;;;;;8.88;2.85;;;;;;;21.08;52.71;101760.91;7391211;19;20025;-58
2023/06/27 10:36:59;;;;;;;9.00;1.90;;;;;;;21.36;52.14;101768.84;7390725;19;20352;-58
2023/06/27 10:39:27;;;;;;;8.35;1.83;;;;;;;21.26;51.45;101758.16;7392255;19;20018;-58
2023/06/27 10:42:05;;;;;;;7.82;1.73;;;;;;;21.17;52.50;101754.56;7391574;19;20015;-58
2023/06/27 10:45:04;;;;;;;11.73;2.63;;;;;;;21.06;51.76;101756.66;7392798;19;20015;-58
2023/06/27 10:47:41;;;;;;;7.00;1.90;;;;;;;20.91;52.92;101756.41;7392162;19;20014;-58
2023/06/27 10:50:22;;;;;;;7.53;1.50;;;;;;;20.95;51.78;101755.09;7391882;19;20025;-59
2023/06/27 10:53:05;;;;;;;4.28;1.50;;;;;;;21.10;50.50;101758.91;7390367;19;20022;-58
2023/06/27 10:55:33;;;;;;;5.93;1.20;;;;;;;21.16;49.54;101750.19;7392584;19;20058;-58
2023/06/27 10:58:02;;;;;;;5.47;1.10;;;;;;;21.17;49.10;101757.25;7391743;19;20028;-58
2023/06/27 11:00:32;;;;;;;4.10;1.10;;;;;;;21.30;47.89;101756.84;7391886;19;20033;-58
2023/06/27 11:03:03;;;;;;;5.25;1.10;;;;;;;21.52;46.37;101758.19;7389744;19;20023;-57
2023/06/27 11:05:40;;;;;;;3.72;1.10;;;;;;;21.59;46.23;101761.91;7391792;19;20018;-57
2023/06/27 11:08:10;;;;;;;4.88;1.15;;;;;;;21.56;46.38;101758.69;7390921;19;20031;-58
2023/06/27 11:10:51;;;;;;;7.65;1.20;;;;;;;21.72;45.55;101748.00;7391725;19;20022;-58
2023/06/27 11:13:22;;;;;;;4.55;1.13;;;;;;;21.93;44.82;101742.19;7390824;19;20019;-58
2023/06/27 11:15:54;;;;;;;7.07;2.13;;;;;;;22.04;44.10;101744.59;7391616;19;20507;-58
2023/06/27 11:18:27;;;;;;;6.20;1.70;;;;;;;22.02;43.81;101741.22;7388730;19;20026;-58
2023/06/27 11:20:56;;;;;;;8.00;1.88;;;;;;;21.89;44.46;101744.34;7391372;19;20026;-58
2023/06/27 11:23:25;;;;;;;7.15;1.70;;;;;;;21.76;44.11;101748.53;7390979;19;20029;-58
2023/06/27 11:25:53;;;;;;;12.15;1.65;;;;;;;21.61;44.56;101762.63;7388889;19;20043;-58
2023/06/27 11:28:22;;;;;;;5.75;1.40;;;;;;;21.64;44.62;101756.91;7389612;19;20014;-58
2023/06/27 11:30:58;;;;;;;5.82;1.23;;;;;;;21.87;44.09;101742.84;7393798;19;20025;-58